Time;durP1;ratioP1;P1;durP2;ratioP2;P2;SDS_P1;SDS_P2;PMS_P1;PMS_P2;Temp;Humidity;BMP_temperature;BMP_pressure;BME280_temperature;BME280_humidity;BME280_pressure;Samples;Min_cycle;Max_cycle;Signal;HPM_P1;HPM_P2
2021/12/30 00:00:13;;;;;;;112.15;16.73;;;;;;;-145.67;100.00;66521.78;4994202;28;20038;-69
2021/12/30 00:02:38;;;;;;;92.30;13.40;;;;;;;-145.67;100.00;66521.78;4983498;28;20482;-70
2021/12/30 00:05:07;;;;;;;109.35;13.48;;;;;;;-145.67;100.00;66521.78;4997446;28;20041;-69
2021/12/30 00:07:33;;;;;;;134.20;15.38;;;;;;;-145.67;100.00;66521.78;5003750;28;20029;-70
2021/12/30 00:09:59;;;;;;;90.00;14.15;;;;;;;-145.67;100.00;66521.78;4985653;28;20066;-72
2021/12/30 00:12:24;;;;;;;114.47;18.08;;;;;;;-145.67;100.00;66521.78;5009281;28;20037;-72
2021/12/30 00:14:52;;;;;;;116.60;17.77;;;;;;;-145.67;100.00;66521.78;4970922;28;20033;-73
2021/12/30 00:17:23;;;;;;;105.10;16.75;;;;;;;-145.67;100.00;66521.78;5002751;28;20156;-72
2021/12/30 00:19:48;;;;;;;89.65;14.20;;;;;;;-145.67;100.00;66521.78;4993964;28;20037;-72
2021/12/30 00:22:16;;;;;;;83.03;13.13;;;;;;;-145.67;100.00;66521.78;4993428;28;20034;-72
2021/12/30 00:24:41;;;;;;;89.95;14.45;;;;;;;-145.67;100.00;66521.78;5008940;28;20045;-72
2021/12/30 00:27:07;;;;;;;100.47;15.70;;;;;;;-145.67;100.00;66521.78;4993903;28;20040;-73
2021/12/30 00:29:33;;;;;;;87.65;13.38;;;;;;;-145.67;100.00;66521.78;4992402;28;20030;-73
2021/12/30 00:31:59;;;;;;;87.78;13.80;;;;;;;-145.67;100.00;66521.78;4999379;28;20549;-71
2021/12/30 00:34:24;;;;;;;95.88;14.40;;;;;;;-145.67;100.00;66521.78;4991868;28;20759;-72
2021/12/30 00:36:50;;;;;;;104.72;15.00;;;;;;;-145.67;100.00;66521.78;4993742;28;20037;-72
2021/12/30 00:39:16;;;;;;;119.25;16.13;;;;;;;-145.67;100.00;66521.78;4993554;28;20032;-72
2021/12/30 00:41:46;;;;;;;141.38;16.83;;;;;;;-145.67;100.00;66521.78;4993747;28;20029;-72
2021/12/30 00:44:12;;;;;;;111.20;16.45;;;;;;;-145.67;100.00;66521.78;4993615;28;20061;-72
2021/12/30 00:46:37;;;;;;;119.05;17.38;;;;;;;-145.67;100.00;66521.78;4993644;28;20164;-72
2021/12/30 00:49:03;;;;;;;127.65;18.60;;;;;;;-145.67;100.00;66521.78;4992866;28;20032;-71
2021/12/30 00:51:29;;;;;;;135.85;18.73;;;;;;;-145.67;100.00;66521.78;4993980;28;20145;-71
2021/12/30 00:53:57;;;;;;;144.57;18.48;;;;;;;-145.67;100.00;66521.78;4992925;28;20034;-71
2021/12/30 00:56:23;;;;;;;130.57;18.15;;;;;;;-145.67;100.00;66521.78;4984157;28;20433;-72
2021/12/30 00:58:48;;;;;;;164.45;18.48;;;;;;;-145.67;100.00;66521.78;4993518;28;20112;-71
2021/12/30 01:01:14;;;;;;;126.13;16.73;;;;;;;-145.67;100.00;66521.78;4994470;28;20033;-72
2021/12/30 01:03:39;;;;;;;150.43;18.23;;;;;;;-145.67;100.00;66521.78;4991906;28;20029;-71
2021/12/30 01:06:05;;;;;;;141.70;17.25;;;;;;;-145.67;100.00;66521.78;4993447;28;20026;-71
2021/12/30 01:08:31;;;;;;;119.28;16.13;;;;;;;-145.67;100.00;66521.78;4994033;28;20030;-71
2021/12/30 01:10:57;;;;;;;137.43;17.45;;;;;;;-145.67;100.00;66521.78;5008874;28;20029;-72
2021/12/30 01:13:26;;;;;;;157.18;18.35;;;;;;;-145.67;100.00;66521.78;4992575;28;20030;-71
2021/12/30 01:16:01;;;;;;;124.05;15.70;;;;;;;-145.67;100.00;66521.78;4994018;28;20037;-70
2021/12/30 01:21:03;;;;;;;121.40;15.82;;;;;;;-145.67;100.00;66521.78;4993227;28;20427;-71
2021/12/30 01:23:29;;;;;;;129.55;16.85;;;;;;;-145.67;100.00;66521.78;4992327;28;20048;-70
2021/12/30 01:25:57;;;;;;;145.77;17.42;;;;;;;-145.67;100.00;66521.78;4993306;28;20030;-72
2021/12/30 01:28:24;;;;;;;138.80;17.42;;;;;;;-145.67;100.00;66521.78;5000463;28;20029;-72
2021/12/30 01:30:49;;;;;;;151.38;18.75;;;;;;;-145.67;100.00;66521.78;5012036;28;20141;-72
2021/12/30 01:33:15;;;;;;;142.80;19.10;;;;;;;-145.67;100.00;66521.78;4994977;28;20046;-72
2021/12/30 01:35:41;;;;;;;131.70;17.10;;;;;;;-145.67;100.00;66521.78;4997397;28;20037;-70
2021/12/30 01:38:11;;;;;;;152.88;19.63;;;;;;;-145.67;100.00;66521.78;4996893;28;20042;-73
2021/12/30 01:40:38;;;;;;;151.98;17.23;;;;;;;-145.67;100.00;66521.78;5003297;28;20053;-70
2021/12/30 01:43:07;;;;;;;145.63;18.00;;;;;;;-145.67;100.00;66521.78;4997334;28;20041;-70
2021/12/30 01:45:33;;;;;;;130.18;17.42;;;;;;;-145.67;100.00;66521.78;5004524;28;20520;-71
2021/12/30 01:47:59;;;;;;;137.75;17.83;;;;;;;-145.67;100.00;66521.78;4996308;28;20030;-72
2021/12/30 01:50:27;;;;;;;136.68;16.80;;;;;;;-145.67;100.00;66521.78;4990185;28;20045;-71
2021/12/30 01:52:53;;;;;;;121.05;17.17;;;;;;;-145.67;100.00;66521.78;4994299;28;20451;-71
2021/12/30 01:55:20;;;;;;;141.18;16.92;;;;;;;-145.67;100.00;66521.78;5012069;28;20859;-72
2021/12/30 01:57:49;;;;;;;154.13;16.45;;;;;;;-145.67;100.00;66521.78;4996982;28;20044;-72
2021/12/30 02:00:20;;;;;;;125.20;15.25;;;;;;;-145.67;100.00;66521.78;5011087;28;20037;-71
2021/12/30 02:02:46;;;;;;;141.70;16.42;;;;;;;-145.67;100.00;66521.78;4996260;28;20862;-71
2021/12/30 02:05:12;;;;;;;135.13;17.02;;;;;;;-145.67;100.00;66521.78;4996557;28;20030;-71
2021/12/30 02:07:38;;;;;;;122.95;16.98;;;;;;;-145.67;100.00;66521.78;5011904;28;20128;-71
2021/12/30 02:10:05;;;;;;;119.35;15.65;;;;;;;-145.67;100.00;66521.78;5011366;28;20040;-72
2021/12/30 02:12:31;;;;;;;101.95;15.40;;;;;;;-145.67;100.00;66521.78;5011445;28;20046;-71
2021/12/30 02:14:58;;;;;;;112.18;16.25;;;;;;;-145.67;100.00;66521.78;5000302;28;20486;-72
2021/12/30 02:17:24;;;;;;;100.22;15.45;;;;;;;-145.67;100.00;66521.78;5002479;28;20518;-72
2021/12/30 02:19:50;;;;;;;94.93;16.15;;;;;;;-145.67;100.00;66521.78;5004719;28;20038;-71
2021/12/30 02:22:17;;;;;;;102.53;14.77;;;;;;;-145.67;100.00;66521.78;4995350;28;20048;-71
2021/12/30 02:24:49;;;;;;;96.13;13.85;;;;;;;-145.67;100.00;66521.78;4996676;28;20500;-71
2021/12/30 02:27:15;;;;;;;98.80;14.13;;;;;;;-145.67;100.00;66521.78;4986109;28;20129;-71
2021/12/30 02:29:40;;;;;;;107.70;15.75;;;;;;;-145.67;100.00;66521.78;5010823;28;20030;-72
2021/12/30 02:32:06;;;;;;;108.25;15.82;;;;;;;-145.67;100.00;66521.78;4995969;28;21842;-72
2021/12/30 02:34:36;;;;;;;93.68;14.93;;;;;;;-145.67;100.00;66521.78;4995610;28;20045;-71
2021/12/30 02:37:02;;;;;;;104.13;14.40;;;;;;;-145.67;100.00;66521.78;4995774;28;20038;-72
2021/12/30 02:39:29;;;;;;;86.03;13.15;;;;;;;-145.67;100.00;66521.78;5010863;28;20139;-71
2021/12/30 02:41:56;;;;;;;100.55;14.45;;;;;;;-145.67;100.00;66521.78;4995953;28;20390;-71
2021/12/30 02:44:22;;;;;;;115.15;15.20;;;;;;;-145.67;100.00;66521.78;4995868;28;20088;-71
2021/12/30 02:46:51;;;;;;;106.13;15.32;;;;;;;-145.67;100.00;66521.78;4995521;28;20037;-72
2021/12/30 02:49:17;;;;;;;100.47;13.50;;;;;;;-145.67;100.00;66521.78;4995761;28;20351;-72
2021/12/30 02:51:42;;;;;;;109.95;13.38;;;;;;;-145.67;100.00;66521.78;4994448;28;20026;-72
2021/12/30 02:54:10;;;;;;;111.20;13.05;;;;;;;-145.67;100.00;66521.78;5010406;28;20034;-71
2021/12/30 02:56:36;;;;;;;108.80;11.85;;;;;;;-145.67;100.00;66521.78;4996221;28;20091;-72
2021/12/30 02:59:02;;;;;;;94.32;10.82;;;;;;;-145.67;100.00;66521.78;4989530;28;20041;-71
2021/12/30 03:01:31;;;;;;;115.65;11.40;;;;;;;-145.67;100.00;66521.78;4993892;28;20566;-71
2021/12/30 03:03:58;;;;;;;110.53;11.18;;;;;;;-145.67;100.00;66521.78;5009495;28;20036;-71
2021/12/30 03:06:24;;;;;;;124.78;11.18;;;;;;;-145.67;100.00;66521.78;4996024;28;20477;-71
2021/12/30 03:08:50;;;;;;;91.78;11.68;;;;;;;-145.67;100.00;66521.78;5010313;28;20120;-71
2021/12/30 03:11:17;;;;;;;82.80;11.32;;;;;;;-145.67;100.00;66521.78;5005247;28;20149;-72
2021/12/30 03:13:44;;;;;;;115.57;12.90;;;;;;;-145.67;100.00;66521.78;5004946;28;20139;-71
2021/12/30 03:16:19;;;;;;;106.53;12.25;;;;;;;-145.67;100.00;66521.78;4987296;28;20107;-71
2021/12/30 03:18:48;;;;;;;91.78;12.50;;;;;;;-145.67;100.00;66521.78;4994608;28;20038;-72
2021/12/30 03:21:17;;;;;;;95.38;14.20;;;;;;;-145.67;100.00;66521.78;5005253;28;20049;-72
2021/12/30 03:23:43;;;;;;;94.32;13.27;;;;;;;-145.67;100.00;66521.78;5010289;28;20502;-71
2021/12/30 03:26:10;;;;;;;80.57;12.88;;;;;;;-145.67;100.00;66521.78;4994896;28;20637;-72
2021/12/30 03:28:36;;;;;;;83.57;11.95;;;;;;;-145.67;100.00;66521.78;4993667;28;20038;-71
2021/12/30 03:31:02;;;;;;;73.75;10.93;;;;;;;-145.67;100.00;66521.78;5004445;28;20208;-71
2021/12/30 03:33:29;;;;;;;85.75;11.93;;;;;;;-145.67;100.00;66521.78;4993033;28;20053;-72
2021/12/30 03:35:59;;;;;;;74.03;10.95;;;;;;;-145.67;100.00;66521.78;4994935;28;20046;-71
2021/12/30 03:38:26;;;;;;;85.65;11.02;;;;;;;-145.67;100.00;66521.78;5002835;28;20041;-71
2021/12/30 03:40:51;;;;;;;79.50;10.93;;;;;;;-145.67;100.00;66521.78;4982627;28;20500;-72
2021/12/30 03:43:17;;;;;;;73.40;10.40;;;;;;;-145.67;100.00;66521.78;4994906;28;20325;-71
2021/12/30 03:45:45;;;;;;;87.50;11.23;;;;;;;-145.67;100.00;66521.78;4994760;28;20558;-72
2021/12/30 03:48:15;;;;;;;87.03;11.57;;;;;;;-145.67;100.00;66521.78;4993972;28;20521;-72
2021/12/30 03:50:44;;;;;;;88.97;10.73;;;;;;;-145.67;100.00;66521.78;4992361;28;20037;-71
2021/12/30 03:53:11;;;;;;;99.57;11.43;;;;;;;-145.67;100.00;66521.78;4994314;28;20125;-72
2021/12/30 03:55:39;;;;;;;64.50;9.90;;;;;;;-145.67;100.00;66521.78;4994881;28;20551;-71
2021/12/30 03:58:04;;;;;;;121.65;12.32;;;;;;;-145.67;100.00;66521.78;4993164;28;20037;-73
2021/12/30 04:00:33;;;;;;;79.57;11.55;;;;;;;-145.67;100.00;66521.78;5003725;28;20041;-72
2021/12/30 04:02:59;;;;;;;62.60;10.52;;;;;;;-145.67;100.00;66521.78;4994241;28;20037;-71
2021/12/30 04:05:25;;;;;;;80.10;12.13;;;;;;;-145.67;100.00;66521.78;4994519;28;20072;-72
2021/12/30 04:07:51;;;;;;;76.00;10.63;;;;;;;-145.67;100.00;66521.78;4994214;28;20033;-71
2021/12/30 04:10:19;;;;;;;78.93;10.65;;;;;;;-145.67;100.00;66521.78;4994605;28;20037;-72
2021/12/30 04:12:45;;;;;;;80.63;10.40;;;;;;;-145.67;100.00;66521.78;4994914;28;20069;-72
2021/12/30 04:15:11;;;;;;;76.63;10.98;;;;;;;-145.67;100.00;66521.78;4989632;28;20136;-71
2021/12/30 04:17:37;;;;;;;96.65;11.02;;;;;;;-145.67;100.00;66521.78;5000156;28;20040;-73
2021/12/30 04:20:05;;;;;;;109.88;12.13;;;;;;;-145.67;100.00;66521.78;5003184;28;20469;-71
2021/12/30 04:22:31;;;;;;;118.90;12.50;;;;;;;-145.67;100.00;66521.78;4987743;28;20433;-73
2021/12/30 04:24:59;;;;;;;142.10;12.73;;;;;;;-145.67;100.00;66521.78;4997705;28;20197;-72
2021/12/30 04:27:25;;;;;;;139.80;13.77;;;;;;;-145.67;100.00;66521.78;4994382;28;20179;-72
2021/12/30 04:29:50;;;;;;;113.03;13.07;;;;;;;-145.67;100.00;66521.78;4993334;28;20061;-73
2021/12/30 04:32:16;;;;;;;124.30;13.32;;;;;;;-145.67;100.00;66521.78;4994264;28;20038;-70
2021/12/30 04:34:44;;;;;;;103.40;12.00;;;;;;;-145.67;100.00;66521.78;4992519;28;20054;-70
2021/12/30 04:37:12;;;;;;;105.20;13.05;;;;;;;-145.67;100.00;66521.78;5009254;28;20124;-71
2021/12/30 04:39:37;;;;;;;115.05;12.88;;;;;;;-145.67;100.00;66521.78;5008849;28;20045;-71
2021/12/30 04:42:03;;;;;;;114.53;14.40;;;;;;;-145.67;100.00;66521.78;4993992;28;20032;-73
2021/12/30 04:44:32;;;;;;;125.47;13.07;;;;;;;-145.67;100.00;66521.78;4993847;28;20041;-72
2021/12/30 04:46:57;;;;;;;91.78;14.10;;;;;;;-145.67;100.00;66521.78;5008135;28;20069;-72
2021/12/30 04:49:24;;;;;;;89.57;14.20;;;;;;;-145.67;100.00;66521.78;4993796;28;20927;-71
2021/12/30 04:51:50;;;;;;;101.80;14.10;;;;;;;-145.67;100.00;66521.78;4993731;28;20042;-69
2021/12/30 04:54:20;;;;;;;93.32;14.40;;;;;;;-145.67;100.00;66521.78;5001934;28;20060;-70
2021/12/30 04:56:46;;;;;;;104.03;16.02;;;;;;;-145.67;100.00;66521.78;4992891;28;20042;-69
2021/12/30 04:59:14;;;;;;;86.18;13.70;;;;;;;-145.67;100.00;66521.78;4992249;28;20097;-70
2021/12/30 05:01:39;;;;;;;93.05;14.18;;;;;;;-145.67;100.00;66521.78;4967311;28;20068;-69
2021/12/30 05:04:05;;;;;;;106.40;13.63;;;;;;;-145.67;100.00;66521.78;4995248;28;20524;-70
2021/12/30 05:06:32;;;;;;;106.50;13.48;;;;;;;-145.67;100.00;66521.78;5013021;28;20455;-70
2021/12/30 05:08:59;;;;;;;82.40;13.57;;;;;;;-145.67;100.00;66521.78;4998341;28;20498;-69
2021/12/30 05:11:24;;;;;;;92.45;15.10;;;;;;;-145.67;100.00;66521.78;5012992;28;20030;-69
2021/12/30 05:13:50;;;;;;;97.05;15.35;;;;;;;-145.67;100.00;66521.78;4997108;28;20133;-71
2021/12/30 05:16:24;;;;;;;102.85;13.75;;;;;;;-145.67;100.00;66521.78;4997337;28;20068;-70
2021/12/30 05:18:55;;;;;;;86.43;13.15;;;;;;;-145.67;100.00;66521.78;4997082;28;20041;-71
2021/12/30 05:21:20;;;;;;;88.25;11.98;;;;;;;-145.67;100.00;66521.78;4997694;28;20033;-70
2021/12/30 05:23:46;;;;;;;87.70;11.75;;;;;;;-145.67;100.00;66521.78;5003027;28;20060;-70
2021/12/30 05:26:11;;;;;;;83.15;10.07;;;;;;;-145.67;100.00;66521.78;4998024;28;20037;-70
2021/12/30 05:28:37;;;;;;;95.18;12.07;;;;;;;-145.67;100.00;66521.78;5000986;28;20057;-70
2021/12/30 05:31:03;;;;;;;74.82;8.90;;;;;;;-145.67;100.00;66521.78;4995653;28;20195;-70
2021/12/30 05:33:28;;;;;;;77.70;9.45;;;;;;;-145.67;100.00;66521.78;4996661;28;20181;-68
2021/12/30 05:35:54;;;;;;;54.58;8.88;;;;;;;-145.67;100.00;66521.78;4997041;28;20529;-69
2021/12/30 05:38:20;;;;;;;74.50;8.98;;;;;;;-145.67;100.00;66521.78;4997349;28;20038;-68
2021/12/30 05:40:45;;;;;;;66.85;8.93;;;;;;;-145.67;100.00;66521.78;4997953;28;20049;-71
2021/12/30 05:43:11;;;;;;;55.88;8.50;;;;;;;-145.67;100.00;66521.78;5011657;28;20107;-71
2021/12/30 05:45:42;;;;;;;66.03;9.43;;;;;;;-145.67;100.00;66521.78;4996988;28;20038;-69
2021/12/30 05:48:08;;;;;;;65.90;8.70;;;;;;;-145.67;100.00;66521.78;4996698;28;20038;-70
2021/12/30 05:50:39;;;;;;;60.80;8.02;;;;;;;-145.67;100.00;66521.78;4995361;28;20079;-70
2021/12/30 05:53:05;;;;;;;63.22;9.05;;;;;;;-145.67;100.00;66521.78;4997297;28;20859;-70
2021/12/30 05:55:30;;;;;;;79.88;8.75;;;;;;;-145.67;100.00;66521.78;4997150;28;20124;-70
2021/12/30 05:57:57;;;;;;;68.57;8.20;;;;;;;-145.67;100.00;66521.78;5011506;28;20493;-70
2021/12/30 06:00:26;;;;;;;57.45;9.00;;;;;;;-145.67;100.00;66521.78;5011601;28;20485;-70
2021/12/30 06:02:52;;;;;;;75.65;8.43;;;;;;;-145.67;100.00;66521.78;5011293;28;20029;-71
2021/12/30 06:05:20;;;;;;;91.82;10.10;;;;;;;-145.67;100.00;66521.78;4995278;28;20041;-69
2021/12/30 06:07:45;;;;;;;97.60;11.07;;;;;;;-145.67;100.00;66521.78;5011022;28;20037;-71
2021/12/30 06:10:11;;;;;;;74.15;8.73;;;;;;;-145.67;100.00;66521.78;5002718;28;20030;-70
2021/12/30 06:12:37;;;;;;;73.40;9.30;;;;;;;-145.67;100.00;66521.78;5011059;28;20038;-68
2021/12/30 06:15:04;;;;;;;89.45;10.77;;;;;;;-145.67;100.00;66521.78;5001458;28;20029;-69
2021/12/30 06:17:30;;;;;;;82.30;11.40;;;;;;;-145.67;100.00;66521.78;4985814;28;20347;-70
2021/12/30 06:19:55;;;;;;;101.38;10.98;;;;;;;-145.67;100.00;66521.78;4995726;28;20038;-70
2021/12/30 06:22:21;;;;;;;79.85;10.13;;;;;;;-145.67;100.00;66521.78;4995227;28;20537;-69
2021/12/30 06:24:47;;;;;;;76.55;10.23;;;;;;;-145.67;100.00;66521.78;4994921;28;20030;-70
2021/12/30 06:27:12;;;;;;;82.80;9.80;;;;;;;-145.67;100.00;66521.78;4996352;28;20030;-70
2021/12/30 06:29:40;;;;;;;83.85;10.60;;;;;;;-145.67;100.00;66521.78;4995681;28;20026;-70
2021/12/30 06:32:06;;;;;;;85.50;9.98;;;;;;;-145.67;100.00;66521.78;4996557;28;20041;-69
2021/12/30 06:34:32;;;;;;;76.28;11.40;;;;;;;-145.67;100.00;66521.78;4995546;28;20060;-69
2021/12/30 06:36:57;;;;;;;81.68;11.05;;;;;;;-145.67;100.00;66521.78;4996355;28;20033;-69
2021/12/30 06:39:23;;;;;;;90.10;10.23;;;;;;;-145.67;100.00;66521.78;4994612;28;20227;-69
2021/12/30 06:41:51;;;;;;;81.38;10.15;;;;;;;-145.67;100.00;66521.78;4999871;28;20109;-69
2021/12/30 06:44:16;;;;;;;80.70;11.02;;;;;;;-145.67;100.00;66521.78;4995802;28;20034;-68
2021/12/30 06:46:52;;;;;;;85.47;11.48;;;;;;;-145.67;100.00;66521.78;4999789;28;20551;-68
2021/12/30 06:49:18;;;;;;;80.55;9.93;;;;;;;-145.67;100.00;66521.78;4995998;28;20025;-70
2021/12/30 06:51:43;;;;;;;82.18;9.73;;;;;;;-145.67;100.00;66521.78;4995480;28;20037;-69
2021/12/30 06:54:10;;;;;;;72.03;10.20;;;;;;;-145.67;100.00;66521.78;4995613;28;20052;-70
2021/12/30 06:56:36;;;;;;;78.28;9.25;;;;;;;-145.67;100.00;66521.78;4995523;28;20211;-70
2021/12/30 06:59:03;;;;;;;83.10;10.15;;;;;;;-145.67;100.00;66521.78;4995547;28;20141;-68
2021/12/30 07:01:29;;;;;;;74.40;9.70;;;;;;;-145.67;100.00;66521.78;4995465;28;20065;-71
2021/12/30 07:03:54;;;;;;;66.80;9.10;;;;;;;-145.67;100.00;66521.78;4995553;28;20298;-70
2021/12/30 07:06:20;;;;;;;66.65;8.23;;;;;;;-145.67;100.00;66521.78;4994031;28;20034;-70
2021/12/30 07:08:48;;;;;;;75.68;9.18;;;;;;;-145.67;100.00;66521.78;4995224;28;20034;-68
2021/12/30 07:11:14;;;;;;;79.95;8.75;;;;;;;-145.67;100.00;66521.78;4978220;28;20067;-70
2021/12/30 07:13:39;;;;;;;61.47;8.38;;;;;;;-145.67;100.00;66521.78;5001293;28;20038;-71
2021/12/30 07:16:05;;;;;;;59.40;9.00;;;;;;;-145.67;100.00;66521.78;4995877;28;20053;-71
2021/12/30 07:18:30;;;;;;;63.63;7.93;;;;;;;-145.67;100.00;66521.78;4998244;28;20034;-68
2021/12/30 07:20:59;;;;;;;54.25;7.75;;;;;;;-145.67;100.00;66521.78;4995340;28;20046;-70
2021/12/30 07:23:24;;;;;;;75.90;10.55;;;;;;;-145.67;100.00;66521.78;4994638;28;20048;-68
2021/12/30 07:25:50;;;;;;;97.57;11.23;;;;;;;-145.67;100.00;66521.78;4995285;28;20149;-68
2021/12/30 07:28:18;;;;;;;84.20;10.20;;;;;;;-145.67;100.00;66521.78;5009656;28;20187;-69
2021/12/30 07:30:44;;;;;;;76.63;11.20;;;;;;;-145.67;100.00;66521.78;5004898;28;20034;-69
2021/12/30 07:33:09;;;;;;;81.95;11.07;;;;;;;-145.67;100.00;66521.78;4994257;28;20091;-69
2021/12/30 07:35:38;;;;;;;98.78;12.10;;;;;;;-145.67;100.00;66521.78;5004601;28;21063;-68
2021/12/30 07:38:04;;;;;;;84.88;12.65;;;;;;;-145.67;100.00;66521.78;5000048;28;20048;-68
2021/12/30 07:40:30;;;;;;;85.78;12.70;;;;;;;-145.67;100.00;66521.78;4993076;28;20065;-69
2021/12/30 07:42:56;;;;;;;94.72;12.65;;;;;;;-145.67;100.00;66521.78;4994824;28;20084;-69
2021/12/30 07:45:21;;;;;;;86.25;12.68;;;;;;;-145.67;100.00;66521.78;4967901;28;20472;-68
2021/12/30 07:47:53;;;;;;;104.22;13.73;;;;;;;-145.67;100.00;66521.78;5004228;28;20048;-69
2021/12/30 07:50:22;;;;;;;87.53;13.43;;;;;;;-145.67;100.00;66521.78;4999424;28;20123;-69
2021/12/30 07:52:49;;;;;;;96.65;12.27;;;;;;;-145.67;100.00;66521.78;4992553;28;20099;-69
2021/12/30 07:55:15;;;;;;;85.32;11.77;;;;;;;-145.67;100.00;66521.78;4994787;28;20053;-69
2021/12/30 07:57:41;;;;;;;82.65;12.10;;;;;;;-145.67;100.00;66521.78;4995288;28;20045;-69
2021/12/30 08:00:11;;;;;;;114.00;14.52;;;;;;;-145.67;100.00;66521.78;5009417;28;20037;-69
2021/12/30 08:02:37;;;;;;;92.65;14.43;;;;;;;-145.67;100.00;66521.78;5009313;28;20063;-69
2021/12/30 08:05:02;;;;;;;85.03;14.60;;;;;;;-145.67;100.00;66521.78;4994204;28;20104;-69
2021/12/30 08:07:28;;;;;;;95.70;14.18;;;;;;;-145.67;100.00;66521.78;5009084;28;20030;-69
2021/12/30 08:09:57;;;;;;;86.25;12.77;;;;;;;-145.67;100.00;66521.78;4999836;28;20025;-68
2021/12/30 08:12:22;;;;;;;108.18;13.63;;;;;;;-145.67;100.00;66521.78;4994547;28;20040;-68
2021/12/30 08:14:48;;;;;;;98.70;13.77;;;;;;;-145.67;100.00;66521.78;5000585;28;20029;-69
2021/12/30 08:17:15;;;;;;;93.53;12.18;;;;;;;-145.67;100.00;66521.78;4994106;28;20401;-69
2021/12/30 08:19:41;;;;;;;99.50;12.95;;;;;;;-145.67;100.00;66521.78;4993763;28;20345;-69
2021/12/30 08:22:07;;;;;;;86.47;12.48;;;;;;;-145.67;100.00;66521.78;4993975;28;21891;-69
2021/12/30 08:24:34;;;;;;;106.35;13.48;;;;;;;-145.67;100.00;66521.78;5009256;28;20045;-69
2021/12/30 08:27:00;;;;;;;102.82;14.38;;;;;;;-145.67;100.00;66521.78;4994011;28;20121;-68
2021/12/30 08:29:31;;;;;;;95.72;14.57;;;;;;;-145.67;100.00;66521.78;4994359;28;20745;-69
2021/12/30 08:31:59;;;;;;;84.40;13.68;;;;;;;-145.67;100.00;66521.78;4994313;28;20037;-68
2021/12/30 08:34:27;;;;;;;110.57;15.20;;;;;;;-145.67;100.00;66521.78;4993432;28;20084;-69
2021/12/30 08:36:53;;;;;;;109.35;14.20;;;;;;;-145.67;100.00;66521.78;4992728;28;20211;-69
2021/12/30 08:39:18;;;;;;;119.15;15.63;;;;;;;-145.67;100.00;66521.78;4991545;28;20156;-71
2021/12/30 08:41:44;;;;;;;124.53;16.25;;;;;;;-145.67;100.00;66521.78;4994281;28;20038;-72
2021/12/30 08:44:12;;;;;;;125.75;16.70;;;;;;;-145.67;100.00;66521.78;5008107;28;20092;-70
2021/12/30 08:46:40;;;;;;;135.63;18.08;;;;;;;-145.67;100.00;66521.78;4994126;28;20257;-72
2021/12/30 08:49:05;;;;;;;128.38;17.25;;;;;;;-145.67;100.00;66521.78;4991545;28;20485;-72
2021/12/30 08:51:33;;;;;;;128.27;18.35;;;;;;;-145.67;100.00;66521.78;4993654;28;20271;-72
2021/12/30 08:53:59;;;;;;;137.20;18.75;;;;;;;-145.67;100.00;66521.78;4999432;28;20025;-73
2021/12/30 08:56:25;;;;;;;143.30;18.48;;;;;;;-145.67;100.00;66521.78;4992537;28;20029;-74
2021/12/30 08:58:50;;;;;;;131.65;18.45;;;;;;;-145.67;100.00;66521.78;4992496;28;20029;-73
2021/12/30 09:01:16;;;;;;;155.73;19.48;;;;;;;-145.67;100.00;66521.78;4993907;28;20040;-74
2021/12/30 09:03:44;;;;;;;129.00;16.88;;;;;;;-145.67;100.00;66521.78;4993852;28;20044;-74
2021/12/30 09:06:14;;;;;;;128.00;17.42;;;;;;;-145.67;100.00;66521.78;4988184;28;20421;-71
2021/12/30 09:08:40;;;;;;;141.05;19.02;;;;;;;-145.67;100.00;66521.78;4993589;28;20033;-68
2021/12/30 09:11:05;;;;;;;144.63;18.83;;;;;;;-145.67;100.00;66521.78;4994205;28;20654;-68
2021/12/30 09:13:31;;;;;;;132.38;20.00;;;;;;;-145.67;100.00;66521.78;4993498;28;20030;-68
2021/12/30 09:15:56;;;;;;;148.98;21.10;;;;;;;-145.67;100.00;66521.78;4992062;28;20061;-70
2021/12/30 09:18:24;;;;;;;140.25;19.55;;;;;;;-145.67;100.00;66521.78;5002850;28;20903;-70
2021/12/30 09:20:49;;;;;;;148.38;19.73;;;;;;;-145.67;100.00;66521.78;4993358;28;20034;-69
2021/12/30 09:23:17;;;;;;;153.13;20.58;;;;;;;-145.67;100.00;66521.78;4992105;28;20041;-69
2021/12/30 09:25:43;;;;;;;140.55;17.77;;;;;;;-145.67;100.00;66521.78;4993817;28;20098;-70
2021/12/30 09:28:14;;;;;;;133.07;18.88;;;;;;;-145.67;100.00;66521.78;5003109;28;20118;-70
2021/12/30 09:30:41;;;;;;;126.25;18.27;;;;;;;-145.67;100.00;66521.78;5008489;28;20604;-68
2021/12/30 09:33:08;;;;;;;135.23;17.27;;;;;;;-145.67;100.00;66521.78;4996822;28;20469;-69
2021/12/30 09:35:34;;;;;;;129.15;17.63;;;;;;;-145.67;100.00;66521.78;4999547;28;20057;-69
2021/12/30 09:37:59;;;;;;;123.85;17.10;;;;;;;-145.67;100.00;66521.78;4997156;28;20033;-69
2021/12/30 09:40:26;;;;;;;116.63;16.77;;;;;;;-145.67;100.00;66521.78;4997438;28;20179;-69
2021/12/30 09:43:01;;;;;;;122.40;16.27;;;;;;;-145.67;100.00;66521.78;4997435;28;20037;-70
2021/12/30 09:45:29;;;;;;;116.63;16.27;;;;;;;-145.67;100.00;66521.78;4993627;28;20034;-69
2021/12/30 09:47:57;;;;;;;112.85;15.85;;;;;;;-145.67;100.00;66521.78;5002943;28;20612;-69
2021/12/30 09:50:26;;;;;;;129.95;16.20;;;;;;;-145.67;100.00;66521.78;5010790;28;20026;-70
2021/12/30 09:52:52;;;;;;;124.70;17.98;;;;;;;-145.67;100.00;66521.78;4997152;28;20087;-69
2021/12/30 09:55:21;;;;;;;116.60;16.40;;;;;;;-145.67;100.00;66521.78;5002518;28;20076;-69
2021/12/30 09:57:47;;;;;;;125.10;16.70;;;;;;;-145.67;100.00;66521.78;5002661;28;20026;-70
2021/12/30 10:00:15;;;;;;;117.63;15.40;;;;;;;-145.67;100.00;66521.78;4994803;28;20801;-70
2021/12/30 10:02:42;;;;;;;129.27;16.92;;;;;;;-145.67;100.00;66521.78;4996742;28;20033;-70
2021/12/30 10:05:10;;;;;;;122.68;16.73;;;;;;;-145.67;100.00;66521.78;4994523;28;20034;-69
2021/12/30 10:07:39;;;;;;;112.30;17.00;;;;;;;-145.67;100.00;66521.78;5011779;28;20048;-69
2021/12/30 10:10:31;;;;;;;103.93;16.20;;;;;;;-145.67;100.00;66521.78;4996059;28;20026;-71
2021/12/30 10:12:59;;;;;;;131.50;17.48;;;;;;;-145.67;100.00;66521.78;5006319;28;20431;-71
2021/12/30 10:15:28;;;;;;;107.88;16.67;;;;;;;-145.67;100.00;66521.78;4996830;28;20120;-70
2021/12/30 10:17:58;;;;;;;120.65;15.98;;;;;;;-145.67;100.00;66521.78;4996519;28;20061;-68
2021/12/30 10:20:29;;;;;;;95.55;14.40;;;;;;;-145.67;100.00;66521.78;5011146;28;20128;-71
2021/12/30 10:23:06;;;;;;;114.32;15.60;;;;;;;-145.67;100.00;66521.78;4999923;28;20130;-71
2021/12/30 10:25:35;;;;;;;114.63;14.65;;;;;;;-145.67;100.00;66521.78;4995401;28;20515;-70
2021/12/30 10:28:16;;;;;;;114.55;16.40;;;;;;;-145.67;100.00;66521.78;5005556;28;20045;-70
2021/12/30 10:30:42;;;;;;;98.20;14.43;;;;;;;-145.67;100.00;66521.78;4996764;28;20064;-70
2021/12/30 10:33:34;;;;;;;114.63;16.02;;;;;;;-145.67;100.00;66521.78;4990502;28;20097;-71
2021/12/30 10:36:00;;;;;;;133.57;16.85;;;;;;;-145.67;100.00;66521.78;5009783;28;20049;-69
2021/12/30 10:38:34;;;;;;;105.82;15.02;;;;;;;-145.67;100.00;66521.78;4995964;28;20484;-71
2021/12/30 10:41:03;;;;;;;102.20;15.55;;;;;;;-145.67;100.00;66521.78;4999898;28;20723;-70
2021/12/30 10:43:38;;;;;;;108.00;13.90;;;;;;;-145.67;100.00;66521.78;4999708;28;20164;-71
2021/12/30 10:46:08;;;;;;;87.18;13.02;;;;;;;-145.67;100.00;66521.78;5010323;28;20033;-71
2021/12/30 10:48:50;;;;;;;95.68;14.25;;;;;;;-145.67;100.00;66521.78;5001304;28;20060;-71
2021/12/30 10:51:21;;;;;;;97.05;13.57;;;;;;;-145.67;100.00;66521.78;4996373;28;20143;-70
2021/12/30 10:53:47;;;;;;;95.17;13.67;;;;;;;-145.67;100.00;66521.78;4995494;28;20038;-70